Airfield :
LOGIN :

Register | Disclaimer

   EN    FR    IT 

 










Legend :    VFR   Marginal VFR   IFR   Intensive IFR   Very Intensive IFR
Visi :
Ceiling :
>= 8 km
>= 3000ft
5 to 8 km
1000 to 3000 ft
1500m to 5 km
500 to 1000 ft
800 to 1500m
200 to 500 ft
< 800m
< 200 ft
Symbols :   Thunderstorms  Fog  Heavy snow  Heavy precipitations  Wind > 20 kt
SIGMETs :     Misc.  Thunderstorms  Icing  Turbulence  Mountain Waves  Volcanic Ashes






- Airport Elevation : 341 ft


EPMO - Modlin

CURRENT METAR :
  • 091830Z 17003KT 150V210 9999 -RA FEW019 BKN048 17/15 Q1015

EXPIRED METARs :
  • 091800Z 21006KT 9999 -RA BKN044 18/13 Q1015
  • 091730Z 18003KT 150V230 9999 -RA SCT029 19/13 Q1015
  • 091700Z 16004KT 9999 -RA NSC 20/10 Q1015
  • 091630Z 18005KT 150V220 CAVOK 21/09 Q1015
  • 091600Z 21007KT 180V240 CAVOK 21/08 Q1015

TAF TAF EPMO
Valid from the 09 at 18:00 until the 10 at 18:00 UTC


091730Z 0918/1018 17005KT 9999 -RA BKN045
TEMPO 0921/1003 BKN014
PROB40 1000/1004 BKN004 OVC009
BECMG 1001/1003 23010KT
PROB40
TEMPO 1010/1018 SCT040CB



MET'MAP, your aeronautical weather chart ! - Copyright ORBIFLY December 2007 - Disclaimer

ORBIFLY MET'MAP TEAM :

Programming & Development : Alexandra Zaïnal
Concept & original design : Baudouin d'Aumeries
Assistance for programming : Marc-Olivier Méhu
Technical & hardware support : Manuel Goepfert

Contact : metmap@orbifly.com




SOURCES & CREDITS :

   NOAA